sensor_id;sensor_type;location;lat;lon;timestamp;pressure;altitude;pressure_sealevel;temperature;humidity
30343;BME280;17145;49.902;8.680;'2023-08-06 01:59:32';99170;;;16;54
30343;BME280;17145;49.902;8.680;'2023-08-06 02:02:00';99160;;;17;55
30343;BME280;17145;49.902;8.680;'2023-08-06 02:04:27';99160;;;17;54
30343;BME280;17145;49.902;8.680;'2023-08-06 02:06:55';99160;;;17;55
30343;BME280;17145;49.902;8.680;'2023-08-06 02:09:22';99160;;;17;55
30343;BME280;17145;49.902;8.680;'2023-08-06 02:11:49';99160;;;17;54
30343;BME280;17145;49.902;8.680;'2023-08-06 02:14:17';99160;;;17;54
30343;BME280;17145;49.902;8.680;'2023-08-06 02:16:45';99160;;;17;54
30343;BME280;17145;49.902;8.680;'2023-08-06 02:19:12';99160;;;17;54
30343;BME280;17145;49.902;8.680;'2023-08-06 02:21:40';99160;;;17;54
30343;BME280;17145;49.902;8.680;'2023-08-06 02:24:07';99150;;;17;54
30343;BME280;17145;49.902;8.680;'2023-08-06 02:26:35';99150;;;17;55
30343;BME280;17145;49.902;8.680;'2023-08-06 02:29:02';99150;;;17;55
30343;BME280;17145;49.902;8.680;'2023-08-06 02:31:30';99140;;;17;55
30343;BME280;17145;49.902;8.680;'2023-08-06 02:33:57';99130;;;17;55
30343;BME280;17145;49.902;8.680;'2023-08-06 02:36:24';99130;;;17;55
30343;BME280;17145;49.902;8.680;'2023-08-06 02:38:52';99120;;;17;55
30343;BME280;17145;49.902;8.680;'2023-08-06 02:41:19';99120;;;17;55
30343;BME280;17145;49.902;8.680;'2023-08-06 02:43:46';99120;;;17;55
30343;BME280;17145;49.902;8.680;'2023-08-06 02:46:14';99120;;;17;55
30343;BME280;17145;49.902;8.680;'2023-08-06 02:48:42';99110;;;17;55
30343;BME280;17145;49.902;8.680;'2023-08-06 02:51:11';99110;;;17;55
30343;BME280;17145;49.902;8.680;'2023-08-06 02:53:39';99110;;;17;55
30343;BME280;17145;49.902;8.680;'2023-08-06 02:56:07';99100;;;17;54
30343;BME280;17145;49.902;8.680;'2023-08-06 02:58:36';99100;;;17;55
30343;BME280;17145;49.902;8.680;'2023-08-06 03:01:03';99090;;;17;55
30343;BME280;17145;49.902;8.680;'2023-08-06 03:03:31';99090;;;17;55
30343;BME280;17145;49.902;8.680;'2023-08-06 03:06:00';99090;;;17;55
30343;BME280;17145;49.902;8.680;'2023-08-06 03:08:37';99090;;;17;54
30343;BME280;17145;49.902;8.680;'2023-08-06 03:11:17';99080;;;17;54
30343;BME280;17145;49.902;8.680;'2023-08-06 03:13:47';99080;;;17;55
30343;BME280;17145;49.902;8.680;'2023-08-06 03:16:17';99080;;;17;55
30343;BME280;17145;49.902;8.680;'2023-08-06 03:18:46';99080;;;17;55
30343;BME280;17145;49.902;8.680;'2023-08-06 03:21:14';99080;;;17;55
30343;BME280;17145;49.902;8.680;'2023-08-06 03:23:42';99080;;;17;55
30343;BME280;17145;49.902;8.680;'2023-08-06 03:26:19';99080;;;17;56
30343;BME280;17145;49.902;8.680;'2023-08-06 03:28:52';99070;;;16;56
30343;BME280;17145;49.902;8.680;'2023-08-06 03:31:24';99070;;;17;55
30343;BME280;17145;49.902;8.680;'2023-08-06 03:33:53';99070;;;17;55
30343;BME280;17145;49.902;8.680;'2023-08-06 03:36:21';99060;;;17;56
30343;BME280;17145;49.902;8.680;'2023-08-06 03:38:51';99050;;;17;55
30343;BME280;17145;49.902;8.680;'2023-08-06 03:41:18';99050;;;17;55
30343;BME280;17145;49.902;8.680;'2023-08-06 03:43:46';99060;;;17;55
30343;BME280;17145;49.902;8.680;'2023-08-06 03:46:13';99060;;;17;55
30343;BME280;17145;49.902;8.680;'2023-08-06 03:48:40';99060;;;17;54
30343;BME280;17145;49.902;8.680;'2023-08-06 03:51:07';99060;;;17;54
30343;BME280;17145;49.902;8.680;'2023-08-06 03:53:35';99070;;;17;54
30343;BME280;17145;49.902;8.680;'2023-08-06 03:56:02';99060;;;17;54
30343;BME280;17145;49.902;8.680;'2023-08-06 03:58:30';99060;;;17;54
30343;BME280;17145;49.902;8.680;'2023-08-06 04:00:57';99060;;;17;53
30343;BME280;17145;49.902;8.680;'2023-08-06 04:03:25';99060;;;17;54
30343;BME280;17145;49.902;8.680;'2023-08-06 04:05:52';99050;;;17;54
30343;BME280;17145;49.902;8.680;'2023-08-06 04:08:20';99050;;;17;53
30343;BME280;17145;49.902;8.680;'2023-08-06 04:10:47';99050;;;17;53
30343;BME280;17145;49.902;8.680;'2023-08-06 04:13:14';99050;;;17;53
30343;BME280;17145;49.902;8.680;'2023-08-06 04:15:43';99040;;;17;53
30343;BME280;17145;49.902;8.680;'2023-08-06 04:18:11';99040;;;17;53
30343;BME280;17145;49.902;8.680;'2023-08-06 04:20:38';99030;;;17;53
30343;BME280;17145;49.902;8.680;'2023-08-06 04:23:05';99020;;;17;53
30343;BME280;17145;49.902;8.680;'2023-08-06 04:25:33';99020;;;17;53
30343;BME280;17145;49.902;8.680;'2023-08-06 04:28:01';99020;;;17;53
30343;BME280;17145;49.902;8.680;'2023-08-06 04:30:28';99020;;;17;53
30343;BME280;17145;49.902;8.680;'2023-08-06 04:32:56';99020;;;17;53
30343;BME280;17145;49.902;8.680;'2023-08-06 04:35:23';99010;;;17;53
30343;BME280;17145;49.902;8.680;'2023-08-06 04:37:50';99010;;;17;53
30343;BME280;17145;49.902;8.680;'2023-08-06 04:40:18';99010;;;17;52
30343;BME280;17145;49.902;8.680;'2023-08-06 04:42:45';99010;;;17;52
30343;BME280;17145;49.902;8.680;'2023-08-06 04:45:13';99000;;;17;52
30343;BME280;17145;49.902;8.680;'2023-08-06 04:47:40';99000;;;17;52
30343;BME280;17145;49.902;8.680;'2023-08-06 04:50:08';99000;;;17;52
30343;BME280;17145;49.902;8.680;'2023-08-06 04:52:35';99000;;;17;53
30343;BME280;17145;49.902;8.680;'2023-08-06 04:55:03';99000;;;17;52
30343;BME280;17145;49.902;8.680;'2023-08-06 04:57:31';99000;;;17;52
30343;BME280;17145;49.902;8.680;'2023-08-06 04:59:58';98990;;;17;52
30343;BME280;17145;49.902;8.680;'2023-08-06 05:02:25';98990;;;17;52
30343;BME280;17145;49.902;8.680;'2023-08-06 05:04:53';98990;;;17;51
30343;BME280;17145;49.902;8.680;'2023-08-06 05:07:20';98990;;;17;52
30343;BME280;17145;49.902;8.680;'2023-08-06 05:09:48';98990;;;17;52
30343;BME280;17145;49.902;8.680;'2023-08-06 05:12:15';98990;;;17;52
30343;BME280;17145;49.902;8.680;'2023-08-06 05:14:43';98980;;;16;51
30343;BME280;17145;49.902;8.680;'2023-08-06 05:17:10';98980;;;17;51
30343;BME280;17145;49.902;8.680;'2023-08-06 05:19:37';98980;;;16;52
30343;BME280;17145;49.902;8.680;'2023-08-06 05:22:05';98980;;;17;51
30343;BME280;17145;49.902;8.680;'2023-08-06 05:24:33';98970;;;16;52
30343;BME280;17145;49.902;8.680;'2023-08-06 05:27:00';98970;;;16;52
30343;BME280;17145;49.902;8.680;'2023-08-06 05:29:28';98970;;;17;52
30343;BME280;17145;49.902;8.680;'2023-08-06 05:31:55';98970;;;17;52
30343;BME280;17145;49.902;8.680;'2023-08-06 05:34:22';98970;;;16;52
30343;BME280;17145;49.902;8.680;'2023-08-06 05:36:50';98970;;;16;52
30343;BME280;17145;49.902;8.680;'2023-08-06 05:39:17';98960;;;16;52
30343;BME280;17145;49.902;8.680;'2023-08-06 05:41:44';98960;;;16;52
30343;BME280;17145;49.902;8.680;'2023-08-06 05:44:12';98960;;;17;52
30343;BME280;17145;49.902;8.680;'2023-08-06 05:46:40';98960;;;17;52
30343;BME280;17145;49.902;8.680;'2023-08-06 05:49:07';98960;;;16;52
30343;BME280;17145;49.902;8.680;'2023-08-06 05:51:34';98960;;;16;52
30343;BME280;17145;49.902;8.680;'2023-08-06 05:54:02';98960;;;16;52
30343;BME280;17145;49.902;8.680;'2023-08-06 05:56:29';98960;;;17;52
30343;BME280;17145;49.902;8.680;'2023-08-06 05:58:57';98960;;;16;52
30343;BME280;17145;49.902;8.680;'2023-08-06 06:01:24';98960;;;16;53
30343;BME280;17145;49.902;8.680;'2023-08-06 06:03:52';98960;;;17;52
30343;BME280;17145;49.902;8.680;'2023-08-06 06:06:19';98960;;;17;52
30343;BME280;17145;49.902;8.680;'2023-08-06 06:08:46';98970;;;16;53
30343;BME280;17145;49.902;8.680;'2023-08-06 06:11:14';98970;;;17;54
30343;BME280;17145;49.902;8.680;'2023-08-06 06:13:42';98980;;;16;56
30343;BME280;17145;49.902;8.680;'2023-08-06 06:16:10';98980;;;16;56
30343;BME280;17145;49.902;8.680;'2023-08-06 06:18:37';98980;;;16;57
30343;BME280;17145;49.902;8.680;'2023-08-06 06:21:05';98980;;;16;57
30343;BME280;17145;49.902;8.680;'2023-08-06 06:23:32';98980;;;16;58
30343;BME280;17145;49.902;8.680;'2023-08-06 06:26:00';98980;;;16;58
30343;BME280;17145;49.902;8.680;'2023-08-06 06:28:27';98980;;;16;58
30343;BME280;17145;49.902;8.680;'2023-08-06 06:30:54';98980;;;16;59
30343;BME280;17145;49.902;8.680;'2023-08-06 06:33:22';98980;;;16;59
30343;BME280;17145;49.902;8.680;'2023-08-06 06:35:54';98970;;;16;59
30343;BME280;17145;49.902;8.680;'2023-08-06 06:38:23';98960;;;16;59
30343;BME280;17145;49.902;8.680;'2023-08-06 06:40:51';98960;;;16;59
30343;BME280;17145;49.902;8.680;'2023-08-06 06:43:18';98960;;;16;59
30343;BME280;17145;49.902;8.680;'2023-08-06 06:45:47';98960;;;15;59
30343;BME280;17145;49.902;8.680;'2023-08-06 06:48:14';98960;;;15;60
30343;BME280;17145;49.902;8.680;'2023-08-06 06:50:44';98970;;;15;60
30343;BME280;17145;49.902;8.680;'2023-08-06 06:53:11';98960;;;16;60
30343;BME280;17145;49.902;8.680;'2023-08-06 06:55:39';98960;;;15;60
30343;BME280;17145;49.902;8.680;'2023-08-06 06:58:06';98960;;;16;60
30343;BME280;17145;49.902;8.680;'2023-08-06 07:00:34';98960;;;15;60
30343;BME280;17145;49.902;8.680;'2023-08-06 07:03:02';98960;;;15;60
30343;BME280;17145;49.902;8.680;'2023-08-06 07:05:29';98960;;;15;60
30343;BME280;17145;49.902;8.680;'2023-08-06 07:07:57';98960;;;15;60
30343;BME280;17145;49.902;8.680;'2023-08-06 07:10:26';98960;;;15;60
30343;BME280;17145;49.902;8.680;'2023-08-06 07:12:53';98960;;;15;60
30343;BME280;17145;49.902;8.680;'2023-08-06 07:15:21';98960;;;15;60
30343;BME280;17145;49.902;8.680;'2023-08-06 07:17:48';98960;;;15;60
30343;BME280;17145;49.902;8.680;'2023-08-06 07:20:15';98960;;;15;60
30343;BME280;17145;49.902;8.680;'2023-08-06 07:22:43';98960;;;15;60
30343;BME280;17145;49.902;8.680;'2023-08-06 07:25:14';98980;;;15;60
30343;BME280;17145;49.902;8.680;'2023-08-06 07:27:42';98970;;;15;60
30343;BME280;17145;49.902;8.680;'2023-08-06 07:30:10';98970;;;15;61
30343;BME280;17145;49.902;8.680;'2023-08-06 07:32:37';98970;;;15;61
30343;BME280;17145;49.902;8.680;'2023-08-06 07:35:06';98970;;;15;61
30343;BME280;17145;49.902;8.680;'2023-08-06 07:37:33';98980;;;15;61
30343;BME280;17145;49.902;8.680;'2023-08-06 07:40:01';98980;;;15;61
30343;BME280;17145;49.902;8.680;'2023-08-06 07:42:28';98980;;;15;61
30343;BME280;17145;49.902;8.680;'2023-08-06 07:44:56';98980;;;15;61
30343;BME280;17145;49.902;8.680;'2023-08-06 07:47:23';98980;;;15;61
30343;BME280;17145;49.902;8.680;'2023-08-06 07:49:50';98980;;;15;61
30343;BME280;17145;49.902;8.680;'2023-08-06 07:52:20';98980;;;15;61
30343;BME280;17145;49.902;8.680;'2023-08-06 07:54:47';98980;;;15;60
30343;BME280;17145;49.902;8.680;'2023-08-06 07:57:14';98980;;;15;61
30343;BME280;17145;49.902;8.680;'2023-08-06 07:59:42';98970;;;15;61
30343;BME280;17145;49.902;8.680;'2023-08-06 08:02:09';98980;;;15;60
30343;BME280;17145;49.902;8.680;'2023-08-06 08:04:37';98980;;;15;61
30343;BME280;17145;49.902;8.680;'2023-08-06 08:07:05';98970;;;15;61
30343;BME280;17145;49.902;8.680;'2023-08-06 08:09:32';98980;;;15;61
30343;BME280;17145;49.902;8.680;'2023-08-06 08:11:59';98980;;;15;60
30343;BME280;17145;49.902;8.680;'2023-08-06 08:14:27';98980;;;16;60
30343;BME280;17145;49.902;8.680;'2023-08-06 08:16:54';98980;;;16;60
30343;BME280;17145;49.902;8.680;'2023-08-06 08:19:22';98980;;;16;60
30343;BME280;17145;49.902;8.680;'2023-08-06 08:21:49';98980;;;16;60
30343;BME280;17145;49.902;8.680;'2023-08-06 08:24:16';98980;;;15;60
30343;BME280;17145;49.902;8.680;'2023-08-06 08:26:44';98980;;;15;60
30343;BME280;17145;49.902;8.680;'2023-08-06 08:29:11';98980;;;16;60
30343;BME280;17145;49.902;8.680;'2023-08-06 08:31:38';98980;;;16;60
30343;BME280;17145;49.902;8.680;'2023-08-06 08:34:05';98980;;;16;60
30343;BME280;17145;49.902;8.680;'2023-08-06 08:36:33';98980;;;15;60
30343;BME280;17145;49.902;8.680;'2023-08-06 08:39:00';98980;;;16;60
30343;BME280;17145;49.902;8.680;'2023-08-06 08:41:27';98980;;;16;60
30343;BME280;17145;49.902;8.680;'2023-08-06 08:43:55';98980;;;15;60
30343;BME280;17145;49.902;8.680;'2023-08-06 08:46:22';98980;;;16;60
30343;BME280;17145;49.902;8.680;'2023-08-06 08:48:50';98980;;;16;60
30343;BME280;17145;49.902;8.680;'2023-08-06 08:54:04';98970;;;16;60
30343;BME280;17145;49.902;8.680;'2023-08-06 08:56:31';98970;;;16;59
30343;BME280;17145;49.902;8.680;'2023-08-06 08:58:58';98980;;;16;59
30343;BME280;17145;49.902;8.680;'2023-08-06 09:01:26';98980;;;16;59
30343;BME280;17145;49.902;8.680;'2023-08-06 09:03:53';98980;;;16;59
30343;BME280;17145;49.902;8.680;'2023-08-06 09:09:43';98980;;;16;60
30343;BME280;17145;49.902;8.680;'2023-08-06 09:12:20';98980;;;16;60
30343;BME280;17145;49.902;8.680;'2023-08-06 09:14:48';98990;;;15;60
30343;BME280;17145;49.902;8.680;'2023-08-06 09:17:15';98980;;;15;60
30343;BME280;17145;49.902;8.680;'2023-08-06 09:19:42';98990;;;15;60
30343;BME280;17145;49.902;8.680;'2023-08-06 09:22:10';98990;;;15;60
30343;BME280;17145;49.902;8.680;'2023-08-06 09:24:37';98990;;;15;60
30343;BME280;17145;49.902;8.680;'2023-08-06 09:27:05';98990;;;15;61
30343;BME280;17145;49.902;8.680;'2023-08-06 09:29:33';98990;;;15;61
30343;BME280;17145;49.902;8.680;'2023-08-06 09:32:01';98990;;;15;61
30343;BME280;17145;49.902;8.680;'2023-08-06 09:34:28';98990;;;15;61
30343;BME280;17145;49.902;8.680;'2023-08-06 09:36:55';98990;;;15;61
30343;BME280;17145;49.902;8.680;'2023-08-06 09:39:23';98990;;;15;62
30343;BME280;17145;49.902;8.680;'2023-08-06 09:41:50';98990;;;15;62
30343;BME280;17145;49.902;8.680;'2023-08-06 09:44:18';98990;;;15;62
30343;BME280;17145;49.902;8.680;'2023-08-06 09:46:45';99000;;;15;61
30343;BME280;17145;49.902;8.680;'2023-08-06 09:49:13';98990;;;15;61
30343;BME280;17145;49.902;8.680;'2023-08-06 09:51:40';98990;;;15;61
30343;BME280;17145;49.902;8.680;'2023-08-06 09:54:08';98990;;;16;61
30343;BME280;17145;49.902;8.680;'2023-08-06 09:56:35';98980;;;15;60
30343;BME280;17145;49.902;8.680;'2023-08-06 09:59:03';98980;;;15;60
30343;BME280;17145;49.902;8.680;'2023-08-06 10:01:30';98980;;;15;60
30343;BME280;17145;49.902;8.680;'2023-08-06 10:03:57';98980;;;16;60
30343;BME280;17145;49.902;8.680;'2023-08-06 10:06:25';98980;;;16;60
30343;BME280;17145;49.902;8.680;'2023-08-06 10:08:52';98980;;;16;60
30343;BME280;17145;49.902;8.680;'2023-08-06 10:11:20';98970;;;16;60
30343;BME280;17145;49.902;8.680;'2023-08-06 10:13:48';98980;;;16;60
30343;BME280;17145;49.902;8.680;'2023-08-06 10:16:15';98980;;;16;60
30343;BME280;17145;49.902;8.680;'2023-08-06 10:18:42';98970;;;16;60
30343;BME280;17145;49.902;8.680;'2023-08-06 10:21:10';98960;;;15;60
30343;BME280;17145;49.902;8.680;'2023-08-06 10:23:37';98970;;;16;60
30343;BME280;17145;49.902;8.680;'2023-08-06 10:26:05';98970;;;15;60
30343;BME280;17145;49.902;8.680;'2023-08-06 10:28:32';98960;;;15;60
30343;BME280;17145;49.902;8.680;'2023-08-06 10:30:59';98960;;;16;60
30343;BME280;17145;49.902;8.680;'2023-08-06 10:33:27';98960;;;16;60
30343;BME280;17145;49.902;8.680;'2023-08-06 10:35:54';98950;;;16;60
30343;BME280;17145;49.902;8.680;'2023-08-06 10:38:22';98950;;;16;60
30343;BME280;17145;49.902;8.680;'2023-08-06 10:40:53';98950;;;16;60
30343;BME280;17145;49.902;8.680;'2023-08-06 10:43:22';98940;;;16;60
30343;BME280;17145;49.902;8.680;'2023-08-06 10:45:51';98940;;;16;60
30343;BME280;17145;49.902;8.680;'2023-08-06 10:48:19';98940;;;16;60
30343;BME280;17145;49.902;8.680;'2023-08-06 10:50:49';98940;;;16;60
30343;BME280;17145;49.902;8.680;'2023-08-06 10:53:17';98940;;;16;60
30343;BME280;17145;49.902;8.680;'2023-08-06 10:55:49';98940;;;16;60
30343;BME280;17145;49.902;8.680;'2023-08-06 10:58:16';98940;;;16;60
30343;BME280;17145;49.902;8.680;'2023-08-06 11:00:46';98940;;;16;61
30343;BME280;17145;49.902;8.680;'2023-08-06 11:03:14';98940;;;16;61
30343;BME280;17145;49.902;8.680;'2023-08-06 11:05:44';98940;;;16;60
30343;BME280;17145;49.902;8.680;'2023-08-06 11:08:15';98940;;;16;60
30343;BME280;17145;49.902;8.680;'2023-08-06 11:10:43';98940;;;16;60
30343;BME280;17145;49.902;8.680;'2023-08-06 11:13:11';98930;;;16;60
30343;BME280;17145;49.902;8.680;'2023-08-06 11:15:38';98940;;;16;59
30343;BME280;17145;49.902;8.680;'2023-08-06 11:18:10';98940;;;17;59
30343;BME280;17145;49.902;8.680;'2023-08-06 11:20:38';98940;;;17;58
30343;BME280;17145;49.902;8.680;'2023-08-06 11:23:08';98940;;;17;59
30343;BME280;17145;49.902;8.680;'2023-08-06 11:25:38';98930;;;17;58
30343;BME280;17145;49.902;8.680;'2023-08-06 11:28:06';98930;;;17;58
30343;BME280;17145;49.902;8.680;'2023-08-06 11:30:35';98930;;;17;57
30343;BME280;17145;49.902;8.680;'2023-08-06 11:33:07';98930;;;17;58
30343;BME280;17145;49.902;8.680;'2023-08-06 11:35:35';98930;;;17;58
30343;BME280;17145;49.902;8.680;'2023-08-06 11:38:06';98920;;;17;57
30343;BME280;17145;49.902;8.680;'2023-08-06 11:40:34';98920;;;17;56
30343;BME280;17145;49.902;8.680;'2023-08-06 11:43:02';98910;;;17;56
30343;BME280;17145;49.902;8.680;'2023-08-06 11:45:31';98920;;;17;56
30343;BME280;17145;49.902;8.680;'2023-08-06 11:47:59';98920;;;17;56
30343;BME280;17145;49.902;8.680;'2023-08-06 11:50:30';98930;;;16;57
30343;BME280;17145;49.902;8.680;'2023-08-06 11:52:58';98930;;;17;57
30343;BME280;17145;49.902;8.680;'2023-08-06 11:55:26';98940;;;17;57
30343;BME280;17145;49.902;8.680;'2023-08-06 11:57:55';98940;;;17;57
30343;BME280;17145;49.902;8.680;'2023-08-06 12:00:23';98940;;;17;57
30343;BME280;17145;49.902;8.680;'2023-08-06 12:02:52';98960;;;17;58
30343;BME280;17145;49.902;8.680;'2023-08-06 12:05:20';98960;;;16;59
30343;BME280;17145;49.902;8.680;'2023-08-06 12:07:49';98950;;;16;59
30343;BME280;17145;49.902;8.680;'2023-08-06 12:10:17';98950;;;16;59
30343;BME280;17145;49.902;8.680;'2023-08-06 12:12:48';98950;;;17;59
30343;BME280;17145;49.902;8.680;'2023-08-06 12:15:20';98940;;;16;59
30343;BME280;17145;49.902;8.680;'2023-08-06 12:17:51';98950;;;16;59
30343;BME280;17145;49.902;8.680;'2023-08-06 12:20:19';98940;;;17;59
30343;BME280;17145;49.902;8.680;'2023-08-06 12:22:51';98940;;;17;60
30343;BME280;17145;49.902;8.680;'2023-08-06 12:25:18';98940;;;16;60
30343;BME280;17145;49.902;8.680;'2023-08-06 12:27:54';98940;;;16;59
30343;BME280;17145;49.902;8.680;'2023-08-06 12:30:23';98940;;;17;60
30343;BME280;17145;49.902;8.680;'2023-08-06 12:32:52';98940;;;16;59
30343;BME280;17145;49.902;8.680;'2023-08-06 12:35:30';98940;;;17;59
30343;BME280;17145;49.902;8.680;'2023-08-06 12:38:02';98940;;;17;60
30343;BME280;17145;49.902;8.680;'2023-08-06 12:40:31';98950;;;17;60
30343;BME280;17145;49.902;8.680;'2023-08-06 12:42:59';98950;;;17;59
30343;BME280;17145;49.902;8.680;'2023-08-06 12:45:27';98950;;;17;61
30343;BME280;17145;49.902;8.680;'2023-08-06 12:47:55';98950;;;17;58
30343;BME280;17145;49.902;8.680;'2023-08-06 12:50:23';98950;;;18;58
30343;BME280;17145;49.902;8.680;'2023-08-06 12:52:50';98940;;;18;58
30343;BME280;17145;49.902;8.680;'2023-08-06 12:55:24';98940;;;18;59
30343;BME280;17145;49.902;8.680;'2023-08-06 12:57:51';98950;;;18;56
30343;BME280;17145;49.902;8.680;'2023-08-06 13:00:21';98960;;;18;57
30343;BME280;17145;49.902;8.680;'2023-08-06 13:02:49';98960;;;17;56
30343;BME280;17145;49.902;8.680;'2023-08-06 13:05:17';98960;;;18;56
30343;BME280;17145;49.902;8.680;'2023-08-06 13:07:44';98950;;;17;57
30343;BME280;17145;49.902;8.680;'2023-08-06 13:10:13';98940;;;18;56
30343;BME280;17145;49.902;8.680;'2023-08-06 13:12:41';98950;;;18;56
30343;BME280;17145;49.902;8.680;'2023-08-06 13:15:09';98950;;;18;55
30343;BME280;17145;49.902;8.680;'2023-08-06 13:17:39';98950;;;18;54
30343;BME280;17145;49.902;8.680;'2023-08-06 13:20:07';98940;;;18;55
30343;BME280;17145;49.902;8.680;'2023-08-06 13:22:36';98960;;;18;55
30343;BME280;17145;49.902;8.680;'2023-08-06 13:25:05';98970;;;18;53
30343;BME280;17145;49.902;8.680;'2023-08-06 13:27:32';98980;;;16;55
30343;BME280;17145;49.902;8.680;'2023-08-06 13:30:00';98980;;;16;55
30343;BME280;17145;49.902;8.680;'2023-08-06 13:32:28';98980;;;17;55
30343;BME280;17145;49.902;8.680;'2023-08-06 13:34:56';99010;;;16;55
30343;BME280;17145;49.902;8.680;'2023-08-06 13:37:24';99010;;;16;56
30343;BME280;17145;49.902;8.680;'2023-08-06 13:39:51';99020;;;16;55
30343;BME280;17145;49.902;8.680;'2023-08-06 13:42:19';99040;;;16;56
30343;BME280;17145;49.902;8.680;'2023-08-06 13:44:47';99020;;;16;56
30343;BME280;17145;49.902;8.680;'2023-08-06 13:47:16';99030;;;16;56
30343;BME280;17145;49.902;8.680;'2023-08-06 13:49:45';99030;;;16;56
30343;BME280;17145;49.902;8.680;'2023-08-06 13:52:16';99050;;;16;56
30343;BME280;17145;49.902;8.680;'2023-08-06 13:54:44';99040;;;15;57
30343;BME280;17145;49.902;8.680;'2023-08-06 13:57:12';99060;;;15;58
30343;BME280;17145;49.902;8.680;'2023-08-06 13:59:40';99060;;;16;57
30343;BME280;17145;49.902;8.680;'2023-08-06 14:04:56';99070;;;15;60
30343;BME280;17145;49.902;8.680;'2023-08-06 14:07:27';99080;;;14;62
30343;BME280;17145;49.902;8.680;'2023-08-06 14:09:54';99090;;;15;62
30343;BME280;17145;49.902;8.680;'2023-08-06 14:12:22';99090;;;15;62
30343;BME280;17145;49.902;8.680;'2023-08-06 14:14:49';99090;;;15;61
30343;BME280;17145;49.902;8.680;'2023-08-06 14:17:16';99090;;;15;61
30343;BME280;17145;49.902;8.680;'2023-08-06 14:19:45';99100;;;15;62
30343;BME280;17145;49.902;8.680;'2023-08-06 14:22:12';99110;;;15;61
30343;BME280;17145;49.902;8.680;'2023-08-06 14:24:40';99110;;;15;62
30343;BME280;17145;49.902;8.680;'2023-08-06 14:27:08';99110;;;15;62
30343;BME280;17145;49.902;8.680;'2023-08-06 14:29:35';99120;;;14;62
30343;BME280;17145;49.902;8.680;'2023-08-06 14:32:03';99120;;;15;62
30343;BME280;17145;49.902;8.680;'2023-08-06 14:34:31';99120;;;15;62
30343;BME280;17145;49.902;8.680;'2023-08-06 14:36:58';99110;;;15;61
30343;BME280;17145;49.902;8.680;'2023-08-06 14:39:26';99110;;;15;60
30343;BME280;17145;49.902;8.680;'2023-08-06 14:41:53';99120;;;15;61
30343;BME280;17145;49.902;8.680;'2023-08-06 14:44:21';99130;;;14;61
30343;BME280;17145;49.902;8.680;'2023-08-06 14:46:48';99120;;;15;61
30343;BME280;17145;49.902;8.680;'2023-08-06 14:49:15';99130;;;15;61
30343;BME280;17145;49.902;8.680;'2023-08-06 14:51:43';99140;;;15;60
30343;BME280;17145;49.902;8.680;'2023-08-06 14:54:10';99140;;;14;59
30343;BME280;17145;49.902;8.680;'2023-08-06 14:56:37';99150;;;15;60
30343;BME280;17145;49.902;8.680;'2023-08-06 14:59:05';99150;;;15;60
30343;BME280;17145;49.902;8.680;'2023-08-06 15:01:32';99150;;;15;60
30343;BME280;17145;49.902;8.680;'2023-08-06 15:04:00';99150;;;15;59
30343;BME280;17145;49.902;8.680;'2023-08-06 15:06:27';99170;;;14;59
30343;BME280;17145;49.902;8.680;'2023-08-06 15:08:55';99170;;;14;60
30343;BME280;17145;49.902;8.680;'2023-08-06 15:11:23';99170;;;15;59
30343;BME280;17145;49.902;8.680;'2023-08-06 15:13:50';99170;;;15;59
30343;BME280;17145;49.902;8.680;'2023-08-06 15:16:17';99180;;;15;59
30343;BME280;17145;49.902;8.680;'2023-08-06 15:18:45';99200;;;14;59
30343;BME280;17145;49.902;8.680;'2023-08-06 15:21:13';99190;;;14;59
30343;BME280;17145;49.902;8.680;'2023-08-06 15:23:41';99200;;;15;59
30343;BME280;17145;49.902;8.680;'2023-08-06 15:26:08';99210;;;14;59
30343;BME280;17145;49.902;8.680;'2023-08-06 15:28:35';99210;;;14;59
30343;BME280;17145;49.902;8.680;'2023-08-06 15:31:03';99210;;;15;59
30343;BME280;17145;49.902;8.680;'2023-08-06 15:33:30';99240;;;14;59
30343;BME280;17145;49.902;8.680;'2023-08-06 15:35:58';99220;;;15;59
30343;BME280;17145;49.902;8.680;'2023-08-06 15:38:25';99230;;;15;59
30343;BME280;17145;49.902;8.680;'2023-08-06 15:40:53';99230;;;15;59
30343;BME280;17145;49.902;8.680;'2023-08-06 15:43:20';99230;;;15;59
30343;BME280;17145;49.902;8.680;'2023-08-06 15:45:48';99230;;;15;59
30343;BME280;17145;49.902;8.680;'2023-08-06 15:48:16';99230;;;15;59
30343;BME280;17145;49.902;8.680;'2023-08-06 15:50:43';99240;;;15;58
30343;BME280;17145;49.902;8.680;'2023-08-06 15:53:11';99240;;;15;58
30343;BME280;17145;49.902;8.680;'2023-08-06 15:55:38';99240;;;15;59
30343;BME280;17145;49.902;8.680;'2023-08-06 15:58:05';99250;;;15;59
30343;BME280;17145;49.902;8.680;'2023-08-06 16:00:33';99250;;;14;60
30343;BME280;17145;49.902;8.680;'2023-08-06 16:03:00';99250;;;14;60
30343;BME280;17145;49.902;8.680;'2023-08-06 16:05:28';99240;;;14;61
30343;BME280;17145;49.902;8.680;'2023-08-06 16:07:55';99250;;;14;61
30343;BME280;17145;49.902;8.680;'2023-08-06 16:10:22';99250;;;14;61
30343;BME280;17145;49.902;8.680;'2023-08-06 16:12:50';99250;;;15;61
30343;BME280;17145;49.902;8.680;'2023-08-06 16:15:17';99250;;;14;61
30343;BME280;17145;49.902;8.680;'2023-08-06 16:17:44';99260;;;14;60
30343;BME280;17145;49.902;8.680;'2023-08-06 16:20:12';99260;;;14;61
30343;BME280;17145;49.902;8.680;'2023-08-06 16:22:39';99260;;;14;61
30343;BME280;17145;49.902;8.680;'2023-08-06 16:25:07';99260;;;14;61
30343;BME280;17145;49.902;8.680;'2023-08-06 16:27:35';99260;;;14;61
30343;BME280;17145;49.902;8.680;'2023-08-06 16:30:02';99270;;;14;60
30343;BME280;17145;49.902;8.680;'2023-08-06 16:32:30';99270;;;14;60